Time;durP1;ratioP1;P1;durP2;ratioP2;P2;SDS_P1;SDS_P2;PMS_P1;PMS_P2;Temp;Humidity;BMP_temperature;BMP_pressure;BME280_temperature;BME280_humidity;BME280_pressure;Samples;Min_cycle;Max_cycle;Signal;HPM_P1;HPM_P2
2022/06/04 00:00:28;;;;;;;11.48;5.70;;;11.90;99.90;;;;;;5055587;28;20045;-81
2022/06/04 00:02:55;;;;;;;12.63;5.00;;;11.90;99.90;;;;;;5039258;28;20072;-82
2022/06/04 00:05:25;;;;;;;11.65;5.88;;;11.90;99.90;;;;;;5022442;28;20048;-81
2022/06/04 00:07:51;;;;;;;8.57;5.50;;;11.90;99.90;;;;;;5055673;28;20395;-81
2022/06/04 00:15:50;;;;;;;13.13;5.38;;;11.90;99.90;;;;;;5055582;28;20553;-83
2022/06/04 00:18:17;;;;;;;10.70;5.40;;;11.90;99.90;;;;;;5038444;28;20090;-82
2022/06/04 00:20:44;;;;;;;17.27;6.38;;;11.90;99.90;;;;;;5038519;28;20044;-82
2022/06/04 00:23:11;;;;;;;11.50;6.72;;;11.90;99.90;;;;;;5055182;28;20080;-82
2022/06/04 00:25:39;;;;;;;13.75;6.18;;;11.80;99.90;;;;;;5038636;28;20184;-82
2022/06/04 00:28:07;;;;;;;13.85;7.18;;;11.70;99.90;;;;;;5038328;28;20041;-83
2022/06/04 00:30:33;;;;;;;12.32;6.68;;;11.70;99.90;;;;;;5038216;28;20072;-82
2022/06/04 00:32:59;;;;;;;14.23;6.35;;;11.70;99.90;;;;;;5022164;28;20445;-82
2022/06/04 00:35:26;;;;;;;17.37;7.07;;;11.70;99.90;;;;;;5054387;28;20037;-81
2022/06/04 00:37:52;;;;;;;10.50;6.53;;;11.70;99.90;;;;;;5054461;28;20362;-82
2022/06/04 00:40:36;;;;;;;14.60;6.68;;;11.80;99.90;;;;;;5038071;28;20040;-82
2022/06/04 00:43:03;;;;;;;14.32;7.90;;;11.70;99.90;;;;;;5038223;28;20071;-82
2022/06/04 00:45:32;;;;;;;13.98;7.15;;;11.70;99.90;;;;;;5038640;28;20045;-82
2022/06/04 00:47:59;;;;;;;14.32;7.60;;;11.60;99.90;;;;;;5038327;28;20051;-82
2022/06/04 00:50:27;;;;;;;20.02;8.07;;;11.60;99.90;;;;;;5054872;28;20090;-82
2022/06/04 00:52:55;;;;;;;13.68;7.60;;;11.60;99.90;;;;;;5038863;28;20143;-82
2022/06/04 00:55:22;;;;;;;15.77;6.82;;;11.60;99.90;;;;;;5054394;28;20037;-82
2022/06/04 00:57:57;;;;;;;14.52;7.00;;;11.60;99.90;;;;;;5005260;28;20041;-82
2022/06/04 01:00:38;;;;;;;13.45;7.32;;;11.60;99.90;;;;;;5054554;28;20155;-82
2022/06/04 01:03:04;;;;;;;14.77;7.28;;;11.60;99.90;;;;;;5054070;28;20040;-82
2022/06/04 01:05:55;;;;;;;17.93;7.53;;;11.50;99.90;;;;;;5038155;28;20047;-81
2022/06/04 01:08:21;;;;;;;14.48;7.20;;;11.50;99.90;;;;;;5038103;28;20048;-82
2022/06/04 01:11:22;;;;;;;16.30;7.37;;;11.50;99.90;;;;;;5054590;28;20103;-82
2022/06/04 01:14:13;;;;;;;13.13;7.43;;;11.50;99.90;;;;;;5061653;28;20043;-82
2022/06/04 01:17:13;;;;;;;14.13;7.25;;;11.40;99.90;;;;;;5034829;28;20052;-83
2022/06/04 01:19:53;;;;;;;13.77;7.20;;;11.50;99.90;;;;;;5054434;28;20044;-82
2022/06/04 01:22:48;;;;;;;12.48;7.00;;;11.40;99.90;;;;;;5054422;28;20044;-82
2022/06/04 01:26:10;;;;;;;15.77;7.57;;;11.40;99.90;;;;;;5054517;28;20043;-82
2022/06/04 01:28:42;;;;;;;14.68;7.10;;;11.40;99.90;;;;;;4994194;28;20037;-82
2022/06/04 01:31:11;;;;;;;17.10;7.55;;;11.30;99.90;;;;;;4978214;28;20438;-83
2022/06/04 01:33:38;;;;;;;13.85;7.55;;;11.30;99.90;;;;;;5017358;28;20131;-83
2022/06/04 01:36:16;;;;;;;12.93;7.22;;;11.40;99.90;;;;;;5037544;28;20116;-82
2022/06/04 01:38:54;;;;;;;16.77;7.75;;;11.40;99.90;;;;;;5054202;28;20143;-82
2022/06/04 01:41:25;;;;;;;15.73;7.68;;;11.40;99.90;;;;;;5054286;28;20554;-83
2022/06/04 01:43:59;;;;;;;16.48;7.25;;;11.40;99.90;;;;;;5037676;28;20048;-81
2022/06/04 01:46:33;;;;;;;14.75;7.70;;;11.30;99.90;;;;;;5054102;28;20127;-82
2022/06/04 01:49:10;;;;;;;11.32;7.15;;;11.30;99.90;;;;;;5054074;28;20131;-82
2022/06/04 01:51:37;;;;;;;15.85;7.05;;;11.30;99.90;;;;;;5054415;28;20542;-81
2022/06/04 01:54:24;;;;;;;13.52;7.32;;;11.20;99.90;;;;;;5053665;28;20051;-82
2022/06/04 01:57:00;;;;;;;14.35;7.32;;;11.20;99.90;;;;;;5054157;28;20046;-82
2022/06/04 01:59:39;;;;;;;14.43;7.40;;;11.20;99.90;;;;;;5053911;28;20119;-82
2022/06/04 02:02:10;;;;;;;13.50;7.30;;;11.20;99.90;;;;;;5036961;28;20032;-82
2022/06/04 02:04:40;;;;;;;13.15;7.20;;;11.20;99.90;;;;;;5037809;28;20056;-82
2022/06/04 02:07:31;;;;;;;11.85;7.05;;;11.20;99.90;;;;;;5053749;28;20059;-82
2022/06/04 02:10:08;;;;;;;14.60;7.22;;;11.20;99.90;;;;;;5054305;28;20480;-82
2022/06/04 02:12:34;;;;;;;13.55;6.97;;;11.20;99.90;;;;;;5037323;28;20053;-83
2022/06/04 02:15:05;;;;;;;15.88;7.38;;;11.20;99.90;;;;;;5039838;28;20048;-82
2022/06/04 02:17:32;;;;;;;14.27;7.38;;;11.20;99.90;;;;;;5057591;28;20075;-82
2022/06/04 02:19:58;;;;;;;9.15;6.00;;;11.20;99.90;;;;;;5040955;28;20037;-81
2022/06/04 02:22:24;;;;;;;13.80;6.83;;;11.20;99.90;;;;;;5024524;28;20046;-82
2022/06/04 02:24:49;;;;;;;14.57;6.73;;;11.20;99.90;;;;;;5057829;28;20290;-82
2022/06/04 02:27:15;;;;;;;11.77;6.83;;;11.20;99.90;;;;;;5057142;28;20090;-82
2022/06/04 02:29:42;;;;;;;13.55;7.30;;;11.20;99.90;;;;;;5041034;28;20279;-82
2022/06/04 02:32:23;;;;;;;12.32;6.65;;;11.20;99.90;;;;;;5007714;28;20074;-82
2022/06/04 02:35:02;;;;;;;13.65;6.95;;;11.20;99.90;;;;;;5057440;28;20507;-82
2022/06/04 02:37:43;;;;;;;12.68;6.22;;;11.20;99.90;;;;;;5040934;28;20048;-81
2022/06/04 02:40:14;;;;;;;12.05;6.95;;;11.20;99.90;;;;;;5056899;28;20098;-82
2022/06/04 02:42:57;;;;;;;13.20;7.20;;;11.20;99.90;;;;;;5040739;28;20125;-81
2022/06/04 02:45:41;;;;;;;13.05;7.03;;;11.20;99.90;;;;;;5057208;28;20391;-82
2022/06/04 02:48:30;;;;;;;12.13;6.90;;;11.20;99.90;;;;;;5056959;28;20116;-81
2022/06/04 02:51:00;;;;;;;13.57;7.22;;;11.30;99.90;;;;;;5043936;28;20037;-80
2022/06/04 02:53:29;;;;;;;13.85;6.75;;;11.30;99.90;;;;;;5058817;28;20494;-82
2022/06/04 02:56:19;;;;;;;13.77;6.80;;;11.30;99.90;;;;;;5040402;28;20041;-81
2022/06/04 02:58:50;;;;;;;14.02;6.88;;;11.30;99.90;;;;;;5056865;28;20115;-81
2022/06/04 03:01:18;;;;;;;13.75;6.80;;;11.30;99.90;;;;;;5056777;28;20036;-82
2022/06/04 03:03:44;;;;;;;11.48;6.25;;;11.20;99.90;;;;;;5056833;28;20067;-81
2022/06/04 03:06:33;;;;;;;12.40;6.40;;;11.30;99.90;;;;;;5040249;28;20052;-81
2022/06/04 03:09:02;;;;;;;10.73;6.20;;;11.30;99.90;;;;;;5040306;28;20044;-82
2022/06/04 03:11:27;;;;;;;12.32;6.47;;;11.20;99.90;;;;;;5056497;28;20412;-82
2022/06/04 03:13:53;;;;;;;12.80;6.32;;;11.30;99.90;;;;;;5039842;28;20043;-82
2022/06/04 03:16:19;;;;;;;14.60;6.15;;;11.30;99.90;;;;;;5040053;28;20052;-82
2022/06/04 03:18:45;;;;;;;8.45;6.00;;;11.30;99.90;;;;;;5023585;28;20044;-81
2022/06/04 03:21:11;;;;;;;13.30;6.45;;;11.30;99.90;;;;;;5039713;28;20033;-83
2022/06/04 03:23:38;;;;;;;10.13;5.82;;;11.20;99.90;;;;;;5039803;28;20051;-82
2022/06/04 03:26:03;;;;;;;;;;;11.20;99.90;;;;;;5039304;28;20043;-81
2022/06/04 03:28:29;;;;;;;9.05;5.70;;;11.20;99.90;;;;;;5056476;28;19917;-82
2022/06/04 03:30:55;;;;;;;11.65;5.85;;;11.20;99.90;;;;;;5039696;28;20052;-81
2022/06/04 03:33:21;;;;;;;10.07;5.55;;;11.10;99.90;;;;;;5039176;28;20048;-81
2022/06/04 03:35:46;;;;;;;13.20;5.60;;;11.40;99.90;;;;;;5039632;28;20495;-81
2022/06/04 03:38:12;;;;;;;7.63;4.97;;;11.10;99.90;;;;;;5022859;28;20275;-82
2022/06/04 03:40:38;;;;;;;9.77;5.38;;;11.10;99.90;;;;;;5023121;28;20132;-83
2022/06/04 03:43:04;;;;;;;9.35;5.28;;;11.10;99.90;;;;;;5055701;28;20033;-82
2022/06/04 03:45:30;;;;;;;11.20;5.40;;;11.10;99.90;;;;;;5039098;28;20047;-82
2022/06/04 03:47:56;;;;;;;9.40;5.10;;;11.10;99.90;;;;;;5055714;28;20040;-82
2022/06/04 03:50:25;;;;;;;9.38;4.93;;;11.00;99.90;;;;;;5055663;28;20444;-82
2022/06/04 03:52:51;;;;;;;9.20;4.70;;;11.00;99.90;;;;;;5039207;28;20036;-83
2022/06/04 03:55:18;;;;;;;12.02;5.18;;;11.00;99.90;;;;;;5039040;28;20082;-82
2022/06/04 03:57:49;;;;;;;7.82;4.47;;;11.00;99.90;;;;;;5055664;28;20056;-82
2022/06/04 04:00:19;;;;;;;8.57;5.13;;;11.00;99.90;;;;;;5038856;28;20037;-82
2022/06/04 04:02:51;;;;;;;7.03;4.45;;;11.00;99.90;;;;;;5055429;28;20036;-83
2022/06/04 04:05:20;;;;;;;9.93;4.60;;;11.00;99.90;;;;;;5055354;28;20041;-82
2022/06/04 04:07:47;;;;;;;9.45;4.80;;;11.00;99.90;;;;;;5038995;28;20078;-82
2022/06/04 04:10:13;;;;;;;6.03;4.28;;;11.00;99.90;;;;;;5038495;28;20047;-82
2022/06/04 04:12:39;;;;;;;;;;;11.10;99.90;;;;;;5038743;28;20064;-82
2022/06/04 04:15:06;;;;;;;5.40;4.22;;;11.10;99.90;;;;;;5055295;28;19920;-83
2022/06/04 04:17:32;;;;;;;7.93;4.32;;;11.10;99.90;;;;;;5038871;28;20123;-82
2022/06/04 04:19:58;;;;;;;7.57;4.90;;;11.20;99.90;;;;;;5055342;28;20083;-82
2022/06/04 04:22:24;;;;;;;8.73;4.30;;;11.80;99.90;;;;;;5038242;28;20046;-82
2022/06/04 04:24:50;;;;;;;7.65;4.50;;;11.20;99.90;;;;;;5038473;28;20279;-81
2022/06/04 04:27:15;;;;;;;7.47;4.63;;;11.20;99.90;;;;;;5038237;28;20123;-81
2022/06/04 04:29:41;;;;;;;9.68;4.50;;;11.20;99.90;;;;;;5038503;28;20485;-82
2022/06/04 04:32:07;;;;;;;9.18;4.97;;;11.20;99.90;;;;;;5005505;28;20499;-81
2022/06/04 04:34:33;;;;;;;6.50;4.50;;;11.20;99.90;;;;;;5038305;28;20477;-82
2022/06/04 04:36:59;;;;;;;10.10;4.25;;;11.20;99.90;;;;;;5021489;28;20040;-83
2022/06/04 04:39:25;;;;;;;7.83;4.17;;;11.30;99.90;;;;;;5054354;28;20085;-82
2022/06/04 04:41:50;;;;;;;10.18;5.10;;;11.30;99.90;;;;;;5038369;28;20125;-83
2022/06/04 04:44:16;;;;;;;7.43;4.32;;;11.50;99.90;;;;;;5037964;28;20045;-82
2022/06/04 04:46:42;;;;;;;8.30;4.60;;;11.30;99.90;;;;;;5022036;28;20036;-83
2022/06/04 04:49:08;;;;;;;8.27;4.60;;;11.80;99.90;;;;;;5041128;28;20079;-82
2022/06/04 04:51:34;;;;;;;10.38;4.88;;;11.40;99.90;;;;;;5012325;28;20693;-83
2022/06/04 04:54:00;;;;;;;5.93;4.30;;;11.40;99.90;;;;;;5038046;28;20037;-82
2022/06/04 04:56:26;;;;;;;7.90;4.30;;;11.40;99.90;;;;;;5054344;28;20041;-81
2022/06/04 04:58:52;;;;;;;7.45;4.75;;;11.50;99.90;;;;;;5037987;28;20484;-81
2022/06/04 05:01:25;;;;;;;6.93;4.35;;;11.50;99.90;;;;;;5038120;28;20048;-81
2022/06/04 05:03:52;;;;;;;7.15;4.50;;;11.60;99.90;;;;;;5054604;28;20032;-82
2022/06/04 05:06:19;;;;;;;7.72;4.72;;;11.60;99.90;;;;;;5054515;28;20519;-83
2022/06/04 05:08:46;;;;;;;7.20;4.72;;;11.70;99.90;;;;;;5054536;28;20051;-82
2022/06/04 05:11:22;;;;;;;8.57;4.43;;;11.70;99.90;;;;;;5037601;28;20053;-82
2022/06/04 05:13:49;;;;;;;8.50;4.65;;;11.80;99.90;;;;;;5054553;28;20131;-82
2022/06/04 05:16:23;;;;;;;7.82;4.55;;;11.90;99.90;;;;;;5037521;28;20071;-82
2022/06/04 05:18:49;;;;;;;10.52;4.30;;;11.90;99.90;;;;;;5054652;28;20387;-82
2022/06/04 05:21:20;;;;;;;8.10;4.10;;;11.90;99.90;;;;;;5059651;28;20127;-81
2022/06/04 05:23:46;;;;;;;6.75;4.25;;;12.00;99.90;;;;;;5059035;28;20396;-81
2022/06/04 05:26:11;;;;;;;5.63;4.35;;;12.20;99.90;;;;;;5037918;28;20036;-82
2022/06/04 05:28:37;;;;;;;6.80;3.90;;;12.30;99.90;;;;;;5039670;28;20100;-83
2022/06/04 05:31:03;;;;;;;6.22;3.80;;;12.40;99.90;;;;;;5038541;28;20399;-82
2022/06/04 05:33:29;;;;;;;6.43;3.88;;;12.50;99.90;;;;;;5037325;28;20128;-82
2022/06/04 05:35:55;;;;;;;6.35;3.83;;;12.70;99.90;;;;;;5059345;28;20052;-82
2022/06/04 05:38:21;;;;;;;4.63;3.88;;;12.90;99.90;;;;;;5037203;28;20041;-82
2022/06/04 05:40:47;;;;;;;8.05;4.18;;;12.90;99.90;;;;;;5037772;28;20036;-82
2022/06/04 05:43:13;;;;;;;;;;;13.10;99.90;;;;;;5054042;28;20076;-81
2022/06/04 05:45:38;;;;;;;5.80;3.88;;;13.20;99.90;;;;;;5054159;28;19991;-82
2022/06/04 05:48:04;;;;;;;6.13;3.60;;;13.30;99.90;;;;;;5037358;28;20063;-81
2022/06/04 05:50:30;;;;;;;6.25;4.00;;;13.50;99.90;;;;;;5057293;28;20340;-82
2022/06/04 05:52:56;;;;;;;5.72;3.83;;;13.50;99.90;;;;;;5057827;28;20492;-83
2022/06/04 05:55:22;;;;;;;6.28;3.80;;;13.60;99.90;;;;;;5024823;28;20037;-80
2022/06/04 05:57:48;;;;;;;7.88;4.18;;;13.70;99.90;;;;;;5045754;28;20412;-82
2022/06/04 06:00:14;;;;;;;6.07;3.80;;;13.90;99.90;;;;;;5040781;28;20122;-83
2022/06/04 06:02:40;;;;;;;;;;;14.10;99.90;;;;;;5042660;28;20055;-83
2022/06/04 06:05:07;;;;;;;4.40;3.33;;;14.70;99.90;;;;;;5052741;28;20408;-83
2022/06/04 06:07:33;;;;;;;6.43;3.67;;;14.70;99.90;;;;;;5047386;28;20484;-83
2022/06/04 06:09:58;;;;;;;5.72;3.42;;;15.10;99.90;;;;;;5046389;28;20066;-81
2022/06/04 06:12:24;;;;;;;6.25;3.60;;;15.30;99.90;;;;;;5057258;28;20061;-82
2022/06/04 06:14:50;;;;;;;4.80;3.10;;;15.40;99.90;;;;;;5057600;28;20116;-82
2022/06/04 06:17:16;;;;;;;3.97;3.03;;;15.70;99.90;;;;;;5057145;28;20070;-82
2022/06/04 06:19:42;;;;;;;6.80;3.70;;;15.70;99.90;;;;;;5040796;28;20393;-82
2022/06/04 06:22:07;;;;;;;4.15;3.15;;;15.80;99.90;;;;;;5040293;28;20079;-83
2022/06/04 06:24:33;;;;;;;4.55;3.03;;;15.80;99.90;;;;;;5024154;28;20178;-82
2022/06/04 06:27:00;;;;;;;4.88;3.17;;;15.80;99.90;;;;;;5057666;28;20040;-82
2022/06/04 06:29:29;;;;;;;4.60;3.25;;;16.10;99.90;;;;;;5057303;28;20049;-81
2022/06/04 06:31:56;;;;;;;4.18;3.10;;;16.20;99.90;;;;;;5040509;28;20037;-82
2022/06/04 06:34:23;;;;;;;4.53;2.80;;;16.20;99.90;;;;;;5040212;28;20037;-81
2022/06/04 06:36:49;;;;;;;6.53;2.80;;;16.00;99.90;;;;;;5040645;28;20037;-81
2022/06/04 06:39:15;;;;;;;3.83;2.90;;;16.30;99.90;;;;;;5056752;28;20039;-82
2022/06/04 06:41:41;;;;;;;;;;;16.30;99.90;;;;;;5040628;28;20047;-82
2022/06/04 06:44:09;;;;;;;4.32;2.92;;;16.50;99.90;;;;;;5056661;28;19916;-82
2022/06/04 06:46:39;;;;;;;4.18;2.65;;;16.60;99.90;;;;;;5040644;28;20036;-82
2022/06/04 06:49:17;;;;;;;4.20;3.05;;;16.40;99.90;;;;;;5056831;28;20480;-82
2022/06/04 06:51:47;;;;;;;4.07;2.65;;;16.60;99.90;;;;;;5040068;28;20042;-82
2022/06/04 06:54:14;;;;;;;4.95;3.00;;;16.50;99.90;;;;;;5056302;28;20044;-83
2022/06/04 06:56:41;;;;;;;4.45;2.67;;;16.60;99.90;;;;;;5040231;28;20094;-82
2022/06/04 06:59:07;;;;;;;3.58;2.65;;;16.30;99.90;;;;;;5039474;28;20120;-82
2022/06/04 07:01:34;;;;;;;4.07;2.80;;;16.00;99.90;;;;;;5022356;28;20068;-82
2022/06/04 07:04:02;;;;;;;4.60;2.85;;;16.10;99.90;;;;;;5056730;28;20088;-81
2022/06/04 07:06:39;;;;;;;4.68;2.40;;;16.50;99.90;;;;;;5056459;28;20248;-81
2022/06/04 07:09:16;;;;;;;4.45;2.38;;;16.90;99.90;;;;;;5039645;28;20089;-81
2022/06/04 07:11:41;;;;;;;5.03;3.10;;;17.10;99.90;;;;;;5056069;28;20072;-81
2022/06/04 07:14:08;;;;;;;5.80;2.90;;;17.20;99.90;;;;;;5039420;28;20048;-81
2022/06/04 07:16:34;;;;;;;;;;;17.60;99.90;;;;;;5039716;28;20041;-82
2022/06/04 07:19:00;;;;;;;3.22;2.45;;;17.70;99.90;;;;;;5056454;28;19916;-82
2022/06/04 07:21:26;;;;;;;5.13;2.72;;;17.70;99.90;;;;;;5056129;28;20036;-82
2022/06/04 07:23:53;;;;;;;5.85;2.75;;;17.70;99.90;;;;;;5039405;28;20090;-82
2022/06/04 07:26:20;;;;;;;4.38;3.17;;;17.60;99.90;;;;;;5043808;28;20041;-82
2022/06/04 07:28:46;;;;;;;5.45;3.10;;;17.70;99.90;;;;;;5039504;28;20072;-82
2022/06/04 07:31:14;;;;;;;5.53;2.97;;;17.60;99.90;;;;;;5056057;28;20530;-82
2022/06/04 07:33:44;;;;;;;7.03;3.33;;;17.50;99.90;;;;;;5023312;28;20094;-82
2022/06/04 07:36:17;;;;;;;5.20;2.85;;;17.60;99.90;;;;;;5039609;28;20388;-82
2022/06/04 07:38:44;;;;;;;3.65;2.72;;;17.90;99.90;;;;;;5039530;28;20489;-82
2022/06/04 07:41:20;;;;;;;5.03;2.90;;;18.30;99.90;;;;;;5039410;28;20048;-82
2022/06/04 07:43:47;;;;;;;3.15;2.50;;;18.60;99.90;;;;;;5055870;28;20079;-82
2022/06/04 07:46:13;;;;;;;4.28;2.92;;;18.80;99.90;;;;;;5022550;28;20052;-83
2022/06/04 07:48:39;;;;;;;;;;;18.90;99.90;;;;;;5056534;28;20036;-82
2022/06/04 07:51:05;;;;;;;5.00;2.33;;;18.70;99.90;;;;;;5039069;28;19916;-82
2022/06/04 07:53:31;;;;;;;3.67;2.28;;;18.70;99.90;;;;;;5039178;28;20392;-82
2022/06/04 07:55:57;;;;;;;4.10;2.42;;;18.50;99.90;;;;;;5055953;28;20063;-82
2022/06/04 07:58:22;;;;;;;5.35;2.63;;;18.90;99.90;;;;;;5039195;28;20044;-81
2022/06/04 08:00:58;;;;;;;4.28;2.25;;;19.10;99.90;;;;;;5039235;28;20052;-82
2022/06/04 08:03:24;;;;;;;4.78;2.28;;;19.10;99.90;;;;;;5060598;28;20104;-81
2022/06/04 08:05:50;;;;;;;5.18;2.30;;;19.30;99.90;;;;;;5022677;28;20529;-83
2022/06/04 08:08:16;;;;;;;4.10;2.45;;;19.30;99.90;;;;;;5055077;28;20049;-81
2022/06/04 08:10:46;;;;;;;4.13;2.35;;;19.30;99.90;;;;;;5055249;28;20147;-82
2022/06/04 08:13:14;;;;;;;4.65;2.40;;;19.50;99.90;;;;;;5038097;28;20041;-82
2022/06/04 08:15:42;;;;;;;3.40;2.10;;;19.30;99.90;;;;;;5055199;28;20059;-82
2022/06/04 08:18:08;;;;;;;3.85;2.20;;;19.70;99.90;;;;;;5022290;28;20048;-81
2022/06/04 08:20:34;;;;;;;4.72;2.28;;;19.90;99.90;;;;;;5038685;28;20036;-82
2022/06/04 08:23:00;;;;;;;4.50;2.08;;;20.00;99.90;;;;;;5038237;28;20036;-82
2022/06/04 08:25:25;;;;;;;6.53;2.25;;;20.10;99.90;;;;;;5054788;28;20040;-83
2022/06/04 08:27:51;;;;;;;4.63;2.50;;;20.30;99.90;;;;;;5021553;28;20086;-83
2022/06/04 08:30:17;;;;;;;3.17;2.00;;;20.60;99.90;;;;;;5038234;28;20094;-81
2022/06/04 08:32:43;;;;;;;4.75;2.30;;;20.70;99.90;;;;;;5038396;28;20492;-82
2022/06/04 08:35:09;;;;;;;;;;;20.80;99.90;;;;;;5054768;28;20040;-81
2022/06/04 08:37:34;;;;;;;4.65;1.98;;;21.00;99.90;;;;;;5060457;28;20273;-82
2022/06/04 08:40:01;;;;;;;4.15;2.17;;;21.10;99.90;;;;;;5043461;28;20492;-82
2022/06/04 08:42:41;;;;;;;3.53;1.98;;;21.40;99.90;;;;;;5054568;28;20033;-82
2022/06/04 08:45:10;;;;;;;4.50;2.10;;;21.00;99.90;;;;;;5037847;28;20044;-82
2022/06/04 08:47:45;;;;;;;4.90;2.30;;;20.80;99.90;;;;;;5038279;28;20040;-82
2022/06/04 08:50:14;;;;;;;3.45;2.10;;;20.80;99.90;;;;;;5054295;28;20051;-82
2022/06/04 08:52:54;;;;;;;4.03;1.98;;;20.70;99.90;;;;;;5055063;28;20044;-82
2022/06/04 08:58:14;;;;;;;4.60;2.22;;;20.90;99.90;;;;;;5054207;28;20076;-81
2022/06/04 09:01:12;;;;;;;3.40;2.00;;;21.10;99.90;;;;;;5054414;28;20041;-82
2022/06/04 09:03:43;;;;;;;3.78;2.00;;;21.00;99.90;;;;;;5037053;28;20110;-82
2022/06/04 09:06:24;;;;;;;3.63;1.80;;;21.10;99.90;;;;;;5054625;28;20437;-81
2022/06/04 09:09:14;;;;;;;3.45;1.90;;;21.20;99.90;;;;;;5054966;28;20476;-82
2022/06/04 09:11:54;;;;;;;4.18;1.95;;;21.40;99.90;;;;;;5037485;28;20054;-82
2022/06/04 09:14:30;;;;;;;3.50;1.85;;;21.70;99.90;;;;;;5038120;28;20109;-81
2022/06/04 09:17:19;;;;;;;4.77;1.87;;;21.60;99.90;;;;;;5057593;28;20036;-82
2022/06/04 09:19:55;;;;;;;3.45;1.70;;;21.50;99.90;;;;;;5037187;28;20283;-82
2022/06/04 09:22:24;;;;;;;3.55;1.55;;;21.80;99.90;;;;;;5054093;28;20048;-82
2022/06/04 09:24:50;;;;;;;2.50;1.60;;;22.00;99.90;;;;;;5056619;28;20049;-83
2022/06/04 09:27:18;;;;;;;;;;;21.80;99.90;;;;;;5025525;28;20082;-82
2022/06/04 09:30:18;;;;;;;4.40;1.67;;;21.90;99.90;;;;;;5058380;28;19935;-82
2022/06/04 09:33:05;;;;;;;6.07;1.75;;;22.30;99.90;;;;;;5046719;28;20052;-82
2022/06/04 09:35:39;;;;;;;3.42;1.65;;;22.30;99.90;;;;;;5041471;28;20090;-82
2022/06/04 09:38:05;;;;;;;4.53;1.75;;;22.50;99.90;;;;;;5041150;28;20033;-82
2022/06/04 09:40:32;;;;;;;;;;;22.90;99.90;;;;;;5042185;28;20392;-82
2022/06/04 09:43:12;;;;;;;3.42;1.90;;;23.00;99.90;;;;;;5058219;28;20123;-82
2022/06/04 09:45:38;;;;;;;3.60;1.90;;;22.30;99.90;;;;;;5047258;28;20044;-83
2022/06/04 09:48:13;;;;;;;;;;;22.00;99.90;;;;;;5046106;28;20127;-81
2022/06/04 09:50:38;;;;;;;3.00;1.70;;;22.50;99.90;;;;;;5058059;28;20007;-82
2022/06/04 09:53:22;;;;;;;;;;;22.70;99.90;;;;;;5058681;28;20086;-82
2022/06/04 09:56:04;;;;;;;4.20;1.83;;;22.70;99.90;;;;;;5041109;28;19920;-82
2022/06/04 09:58:33;;;;;;;2.72;1.75;;;21.90;99.90;;;;;;5057867;28;20049;-82
2022/06/04 10:01:04;;;;;;;3.72;1.70;;;22.00;99.90;;;;;;5057790;28;20040;-82
2022/06/04 10:03:40;;;;;;;3.65;1.98;;;22.40;99.90;;;;;;5058007;28;20036;-83
2022/06/04 10:06:12;;;;;;;3.08;1.70;;;22.30;99.90;;;;;;5044377;28;20134;-82
2022/06/04 10:11:33;;;;;;;4.53;1.85;;;23.20;99.90;;;;;;5055996;28;20060;-82
2022/06/04 10:13:59;;;;;;;2.40;1.50;;;23.20;98.80;;;;;;5056345;28;20048;-82
2022/06/04 10:16:36;;;;;;;3.47;1.70;;;23.40;99.10;;;;;;5039615;28;20059;-82
2022/06/04 10:19:23;;;;;;;3.67;2.10;;;23.60;99.60;;;;;;5040323;28;20039;-82
2022/06/04 10:22:04;;;;;;;5.55;2.20;;;22.90;99.90;;;;;;5062477;28;20542;-83
2022/06/04 10:24:35;;;;;;;5.03;1.92;;;22.90;99.60;;;;;;5063100;28;20102;-82
2022/06/04 10:27:29;;;;;;;3.63;1.55;;;22.90;99.40;;;;;;5044221;28;20396;-82
2022/06/04 10:30:04;;;;;;;3.63;1.98;;;22.70;99.50;;;;;;5045737;28;20066;-83
2022/06/04 10:32:45;;;;;;;3.70;1.90;;;22.90;99.70;;;;;;5039366;28;20130;-82
2022/06/04 10:35:41;;;;;;;3.05;1.83;;;22.40;99.80;;;;;;5043517;28;20548;-83
2022/06/04 10:38:28;;;;;;;5.35;2.10;;;23.00;99.90;;;;;;5056718;28;20099;-82
2022/06/04 10:41:11;;;;;;;4.95;2.28;;;23.00;99.90;;;;;;5056907;28;20396;-82
2022/06/04 10:43:40;;;;;;;4.82;2.20;;;23.50;99.90;;;;;;5056570;28;20044;-82
2022/06/04 10:46:08;;;;;;;4.63;2.22;;;23.40;99.80;;;;;;5065503;28;20096;-82
2022/06/04 10:49:02;;;;;;;4.60;2.10;;;23.30;99.50;;;;;;5065187;28;20041;-81
2022/06/04 10:52:00;;;;;;;4.13;2.28;;;23.50;99.70;;;;;;5049930;28;20045;-80
2022/06/04 10:54:34;;;;;;;3.78;1.83;;;23.70;99.30;;;;;;5056400;28;20555;-82
2022/06/04 10:57:29;;;;;;;3.05;2.00;;;24.00;99.70;;;;;;5040238;28;20076;-83
2022/06/04 11:00:04;;;;;;;3.47;2.30;;;24.10;98.90;;;;;;5029816;28;20049;-82
2022/06/04 11:02:47;;;;;;;5.53;2.33;;;23.80;99.10;;;;;;5064512;28;20419;-82
2022/06/04 11:05:22;;;;;;;2.70;2.13;;;23.90;98.50;;;;;;5063950;28;20443;-81
2022/06/04 11:08:36;;;;;;;3.85;2.55;;;23.70;98.50;;;;;;5044123;28;20119;-82
2022/06/04 11:11:14;;;;;;;3.80;2.15;;;24.10;99.50;;;;;;5048073;28;20052;-81
2022/06/04 11:13:48;;;;;;;4.57;2.10;;;24.00;98.60;;;;;;5040142;28;20036;-82
2022/06/04 11:16:37;;;;;;;3.72;2.15;;;23.90;98.80;;;;;;5056710;28;20054;-82
2022/06/04 11:19:24;;;;;;;4.32;2.03;;;23.80;98.40;;;;;;5056041;28;20040;-83
2022/06/04 11:21:52;;;;;;;4.43;1.73;;;23.90;98.40;;;;;;5056247;28;20041;-83
2022/06/04 11:24:20;;;;;;;4.43;2.00;;;23.90;98.60;;;;;;5056470;28;20519;-82
2022/06/04 11:27:11;;;;;;;4.90;1.95;;;23.50;99.00;;;;;;5056838;28;20369;-82
2022/06/04 11:29:38;;;;;;;2.53;1.67;;;23.60;98.70;;;;;;5055977;28;20055;-82
2022/06/04 11:32:07;;;;;;;4.63;2.25;;;24.00;99.40;;;;;;5039709;28;20104;-82
2022/06/04 11:34:54;;;;;;;3.78;2.05;;;24.00;98.80;;;;;;5039764;28;20460;-82
2022/06/04 11:37:45;;;;;;;3.47;1.88;;;24.00;98.50;;;;;;5055801;28;20032;-82
2022/06/04 11:40:33;;;;;;;4.25;2.30;;;23.90;98.60;;;;;;5039219;28;20169;-82
2022/06/04 11:42:59;;;;;;;3.67;1.90;;;24.10;99.00;;;;;;5039941;28;20381;-82
2022/06/04 11:45:52;;;;;;;3.15;2.00;;;23.80;98.80;;;;;;5039545;28;20078;-83
2022/06/04 11:48:38;;;;;;;5.13;2.70;;;24.50;98.90;;;;;;5043989;28;20047;-82
2022/06/04 11:51:37;;;;;;;5.35;2.40;;;23.60;98.60;;;;;;5056156;28;20039;-83
2022/06/04 11:54:24;;;;;;;4.13;2.22;;;23.90;99.00;;;;;;5056318;28;20045;-82
2022/06/04 11:57:23;;;;;;;3.90;2.30;;;23.80;98.70;;;;;;5041721;28;20072;-82
2022/06/04 11:59:52;;;;;;;5.45;2.53;;;24.10;98.00;;;;;;5067030;28;20063;-82
2022/06/04 12:02:27;;;;;;;5.97;2.50;;;23.50;98.50;;;;;;5042177;28;20123;-83
2022/06/04 12:05:03;;;;;;;6.15;2.40;;;23.50;98.80;;;;;;5056516;28;20041;-82
2022/06/04 12:07:41;;;;;;;5.22;2.60;;;23.60;99.20;;;;;;5061094;28;20489;-82
2022/06/04 12:10:34;;;;;;;4.70;1.90;;;23.90;98.50;;;;;;5048663;28;20493;-82
2022/06/04 12:13:12;;;;;;;5.13;2.90;;;23.70;98.50;;;;;;5039129;28;20048;-83
2022/06/04 12:15:43;;;;;;;3.78;2.20;;;23.50;98.80;;;;;;5056065;28;20136;-83
2022/06/04 12:18:27;;;;;;;4.72;2.10;;;23.90;98.70;;;;;;5039041;28;20094;-82
2022/06/04 12:24:16;;;;;;;4.95;2.58;;;23.80;98.40;;;;;;5055629;28;20506;-82
2022/06/04 12:26:49;;;;;;;4.00;2.35;;;24.10;98.40;;;;;;5038940;28;20051;-82
2022/06/04 12:29:32;;;;;;;5.63;2.55;;;24.10;98.20;;;;;;5055420;28;20048;-83
2022/06/04 12:32:01;;;;;;;5.28;2.67;;;24.30;98.50;;;;;;5039284;28;20400;-83
2022/06/04 12:34:34;;;;;;;5.53;2.22;;;24.20;98.80;;;;;;5055015;28;20040;-82
2022/06/04 12:37:01;;;;;;;6.28;2.88;;;24.40;98.30;;;;;;5055458;28;20071;-82
2022/06/04 12:39:38;;;;;;;5.15;2.63;;;24.20;98.30;;;;;;5038858;28;20036;-82
2022/06/04 12:42:19;;;;;;;3.85;2.10;;;24.10;98.60;;;;;;5038816;28;20089;-83
2022/06/04 12:45:01;;;;;;;4.13;2.42;;;24.20;97.70;;;;;;5055480;28;20044;-83
2022/06/04 12:47:33;;;;;;;5.35;2.58;;;24.20;97.70;;;;;;5043563;28;20090;-82
2022/06/04 12:50:22;;;;;;;7.30;2.40;;;24.20;98.30;;;;;;5038785;28;20127;-83
2022/06/04 12:53:00;;;;;;;3.83;2.40;;;23.80;98.50;;;;;;5054980;28;20105;-82
2022/06/04 12:55:29;;;;;;;3.80;2.17;;;24.20;97.90;;;;;;5055091;28;20178;-83
2022/06/04 12:58:26;;;;;;;6.28;2.38;;;24.30;97.90;;;;;;5054767;28;20123;-83
2022/06/04 13:01:02;;;;;;;8.37;2.47;;;24.70;98.20;;;;;;5055241;28;20392;-82
2022/06/04 13:03:34;;;;;;;6.05;2.97;;;24.70;97.60;;;;;;5038880;28;20432;-83
2022/06/04 13:06:48;;;;;;;5.68;2.35;;;24.40;97.80;;;;;;5055746;28;20036;-82
2022/06/04 13:09:35;;;;;;;5.32;2.72;;;24.40;98.50;;;;;;5019284;28;20102;-82
2022/06/04 13:12:14;;;;;;;5.43;2.58;;;23.50;98.60;;;;;;5038535;28;20063;-82
2022/06/04 13:14:45;;;;;;;5.18;2.50;;;23.60;98.80;;;;;;5054834;28;20044;-83
2022/06/04 13:17:25;;;;;;;5.53;2.88;;;23.80;99.30;;;;;;5060586;28;20072;-82
2022/06/04 13:20:30;;;;;;;3.70;2.22;;;23.90;98.80;;;;;;5055212;28;20098;-81
2022/06/04 13:23:24;;;;;;;4.47;2.40;;;24.50;99.10;;;;;;5054044;28;20047;-83
2022/06/04 13:26:07;;;;;;;5.18;2.20;;;23.80;98.10;;;;;;5055605;28;20086;-82
2022/06/04 13:28:41;;;;;;;5.80;2.53;;;24.00;98.20;;;;;;5062447;28;20041;-83
2022/06/04 13:31:20;;;;;;;4.45;2.33;;;23.40;98.70;;;;;;5038168;28;20047;-82